Terminal Aerodrome Forecast
Issued by NWS

Current Version | Previous Version | Graphics & Text | Print | Product List | Glossary On
Versions: 1 2 3 4 5 6 7 8 9 10 11 12 13 14 15 16 17 18 19 20 21 22 23 24 25 26
000
FTUS41 KILN 202300
TAFLCK
TAF
KLCK 202330Z 2100/2124 21010KT P6SM SCT050 BKN250
     FM210500 22010KT P6SM VCSH BKN040
     FM211000 23010KT P6SM VCSH OVC025
     FM211500 26014G23KT P6SM BKN035
     FM211900 29016G25KT P6SM BKN050=

USA.gov is the U.S. government's official web portal to all federal, state and local government web resources and services.